Airport View

Enter AWOS ICAO identifier for current METAR.

ex. KFNL

KFCI 261056Z AUTO 00000KT 10SM SCT080 20/18 A3010 RMK AO2 SLP202 T02000178

26 Jun 2019 12:00

Frequency: 128.625

Phone: 804-271-8426

Other Area AWOS: KRIC - KPTB - KOFP - KW96

TAF KRIC 261120Z 2612/2712 35005KT P6SM SKC